sensor_id;sensor_type;location;lat;lon;timestamp;temperature;humidity
19256;DHT22;9762;52.490;13.410;2023-07-13T00:00:25;25.10;94.10
19256;DHT22;9762;52.490;13.410;2023-07-13T00:02:51;25.00;94.30
19256;DHT22;9762;52.490;13.410;2023-07-13T00:05:23;25.00;94.60
19256;DHT22;9762;52.490;13.410;2023-07-13T00:07:50;25.00;95.00
19256;DHT22;9762;52.490;13.410;2023-07-13T00:10:16;25.00;95.20
19256;DHT22;9762;52.490;13.410;2023-07-13T00:12:42;25.00;95.40
19256;DHT22;9762;52.490;13.410;2023-07-13T00:15:13;24.90;95.40
19256;DHT22;9762;52.490;13.410;2023-07-13T00:44:31;24.50;84.80
19256;DHT22;9762;52.490;13.410;2023-07-13T00:46:57;24.50;85.60
19256;DHT22;9762;52.490;13.410;2023-07-13T00:49:26;24.40;85.50
19256;DHT22;9762;52.490;13.410;2023-07-13T00:52:05;24.40;85.50
19256;DHT22;9762;52.490;13.410;2023-07-13T00:54:38;24.40;86.00
19256;DHT22;9762;52.490;13.410;2023-07-13T00:57:08;24.40;86.40
19256;DHT22;9762;52.490;13.410;2023-07-13T00:59:35;24.40;86.30
19256;DHT22;9762;52.490;13.410;2023-07-13T01:02:02;24.40;86.30
19256;DHT22;9762;52.490;13.410;2023-07-13T01:04:28;24.40;86.40
19256;DHT22;9762;52.490;13.410;2023-07-13T01:06:55;24.40;84.80
19256;DHT22;9762;52.490;13.410;2023-07-13T01:09:21;24.40;72.50
19256;DHT22;9762;52.490;13.410;2023-07-13T01:11:47;24.40;70.10
19256;DHT22;9762;52.490;13.410;2023-07-13T01:14:13;24.40;69.70
19256;DHT22;9762;52.490;13.410;2023-07-13T01:16:41;24.40;69.20
19256;DHT22;9762;52.490;13.410;2023-07-13T01:19:19;24.40;68.20
19256;DHT22;9762;52.490;13.410;2023-07-13T01:21:51;24.40;67.80
19256;DHT22;9762;52.490;13.410;2023-07-13T01:24:16;24.30;67.20
19256;DHT22;9762;52.490;13.410;2023-07-13T01:26:42;24.20;67.20
19256;DHT22;9762;52.490;13.410;2023-07-13T01:29:08;24.20;67.40
19256;DHT22;9762;52.490;13.410;2023-07-13T01:31:33;24.10;68.00
19256;DHT22;9762;52.490;13.410;2023-07-13T01:34:00;24.10;68.00
19256;DHT22;9762;52.490;13.410;2023-07-13T01:36:25;24.10;68.00
19256;DHT22;9762;52.490;13.410;2023-07-13T01:38:51;24.10;68.30
19256;DHT22;9762;52.490;13.410;2023-07-13T01:41:17;24.10;68.20
19256;DHT22;9762;52.490;13.410;2023-07-13T01:43:43;24.00;67.90
19256;DHT22;9762;52.490;13.410;2023-07-13T01:46:08;24.00;68.00
19256;DHT22;9762;52.490;13.410;2023-07-13T01:48:34;24.00;68.20
19256;DHT22;9762;52.490;13.410;2023-07-13T01:50:59;23.90;68.20
19256;DHT22;9762;52.490;13.410;2023-07-13T01:53:25;23.90;68.20
19256;DHT22;9762;52.490;13.410;2023-07-13T01:55:50;23.90;68.40
19256;DHT22;9762;52.490;13.410;2023-07-13T01:58:16;23.90;68.60
19256;DHT22;9762;52.490;13.410;2023-07-13T02:00:42;23.80;68.70
19256;DHT22;9762;52.490;13.410;2023-07-13T02:03:07;23.80;68.80
19256;DHT22;9762;52.490;13.410;2023-07-13T02:05:33;23.80;69.00
19256;DHT22;9762;52.490;13.410;2023-07-13T02:07:58;23.70;69.30
19256;DHT22;9762;52.490;13.410;2023-07-13T02:10:24;23.70;69.40
19256;DHT22;9762;52.490;13.410;2023-07-13T02:12:50;23.60;69.70
19256;DHT22;9762;52.490;13.410;2023-07-13T02:15:17;23.60;69.80
19256;DHT22;9762;52.490;13.410;2023-07-13T02:17:43;23.60;69.90
19256;DHT22;9762;52.490;13.410;2023-07-13T02:20:08;23.60;70.00
19256;DHT22;9762;52.490;13.410;2023-07-13T02:22:34;23.50;70.40
19256;DHT22;9762;52.490;13.410;2023-07-13T02:25:00;23.50;70.60
19256;DHT22;9762;52.490;13.410;2023-07-13T02:27:26;23.50;70.50
19256;DHT22;9762;52.490;13.410;2023-07-13T02:29:52;23.50;70.50
19256;DHT22;9762;52.490;13.410;2023-07-13T02:32:18;23.50;70.50
19256;DHT22;9762;52.490;13.410;2023-07-13T02:34:44;23.50;70.50
19256;DHT22;9762;52.490;13.410;2023-07-13T02:37:09;23.50;70.70
19256;DHT22;9762;52.490;13.410;2023-07-13T02:39:35;23.50;70.70
19256;DHT22;9762;52.490;13.410;2023-07-13T02:42:01;23.50;70.80
19256;DHT22;9762;52.490;13.410;2023-07-13T02:44:27;23.50;71.00
19256;DHT22;9762;52.490;13.410;2023-07-13T02:46:52;23.40;71.00
19256;DHT22;9762;52.490;13.410;2023-07-13T02:49:18;23.50;71.00
19256;DHT22;9762;52.490;13.410;2023-07-13T02:51:44;23.40;71.20
19256;DHT22;9762;52.490;13.410;2023-07-13T02:54:10;23.40;71.30
19256;DHT22;9762;52.490;13.410;2023-07-13T02:56:37;23.40;71.70
19256;DHT22;9762;52.490;13.410;2023-07-13T02:59:04;23.30;71.80
19256;DHT22;9762;52.490;13.410;2023-07-13T03:01:30;23.30;72.00
19256;DHT22;9762;52.490;13.410;2023-07-13T03:03:58;23.20;72.00
19256;DHT22;9762;52.490;13.410;2023-07-13T03:06:23;23.20;72.20
19256;DHT22;9762;52.490;13.410;2023-07-13T03:08:50;23.20;72.30
19256;DHT22;9762;52.490;13.410;2023-07-13T03:11:18;23.20;73.50
19256;DHT22;9762;52.490;13.410;2023-07-13T03:13:45;23.10;73.20
19256;DHT22;9762;52.490;13.410;2023-07-13T03:16:11;23.10;73.00
19256;DHT22;9762;52.490;13.410;2023-07-13T03:18:38;23.10;73.10
19256;DHT22;9762;52.490;13.410;2023-07-13T03:21:04;23.10;73.20
19256;DHT22;9762;52.490;13.410;2023-07-13T03:23:30;23.00;73.00
19256;DHT22;9762;52.490;13.410;2023-07-13T03:26:12;23.00;73.10
19256;DHT22;9762;52.490;13.410;2023-07-13T03:28:38;23.00;73.30
19256;DHT22;9762;52.490;13.410;2023-07-13T03:31:08;23.00;73.30
19256;DHT22;9762;52.490;13.410;2023-07-13T03:33:34;22.90;73.50
19256;DHT22;9762;52.490;13.410;2023-07-13T03:36:00;22.90;73.70
19256;DHT22;9762;52.490;13.410;2023-07-13T03:38:26;22.80;73.90
19256;DHT22;9762;52.490;13.410;2023-07-13T03:40:52;22.80;74.00
19256;DHT22;9762;52.490;13.410;2023-07-13T03:43:18;22.80;74.20
19256;DHT22;9762;52.490;13.410;2023-07-13T03:45:46;22.80;74.40
19256;DHT22;9762;52.490;13.410;2023-07-13T03:48:11;22.80;74.50
19256;DHT22;9762;52.490;13.410;2023-07-13T03:50:37;22.80;74.50
19256;DHT22;9762;52.490;13.410;2023-07-13T03:53:04;22.80;75.00
19256;DHT22;9762;52.490;13.410;2023-07-13T03:55:30;22.80;75.10
19256;DHT22;9762;52.490;13.410;2023-07-13T03:58:23;22.80;75.30
19256;DHT22;9762;52.490;13.410;2023-07-13T04:00:46;22.80;75.30
19256;DHT22;9762;52.490;13.410;2023-07-13T04:03:12;22.90;75.50
19256;DHT22;9762;52.490;13.410;2023-07-13T04:05:38;22.90;75.40
19256;DHT22;9762;52.490;13.410;2023-07-13T04:08:06;22.90;75.50
19256;DHT22;9762;52.490;13.410;2023-07-13T04:10:31;22.90;75.50
19256;DHT22;9762;52.490;13.410;2023-07-13T04:12:57;23.00;75.30
19256;DHT22;9762;52.490;13.410;2023-07-13T04:15:22;23.00;74.80
19256;DHT22;9762;52.490;13.410;2023-07-13T04:17:48;23.00;74.50
19256;DHT22;9762;52.490;13.410;2023-07-13T04:20:13;23.10;74.20
19256;DHT22;9762;52.490;13.410;2023-07-13T04:22:39;23.10;74.00
19256;DHT22;9762;52.490;13.410;2023-07-13T04:25:05;23.10;74.00
19256;DHT22;9762;52.490;13.410;2023-07-13T04:27:31;23.10;73.80
19256;DHT22;9762;52.490;13.410;2023-07-13T04:29:56;23.20;73.60
19256;DHT22;9762;52.490;13.410;2023-07-13T04:32:22;23.30;73.40
19256;DHT22;9762;52.490;13.410;2023-07-13T04:34:47;23.30;73.00
19256;DHT22;9762;52.490;13.410;2023-07-13T04:37:17;23.40;73.10
19256;DHT22;9762;52.490;13.410;2023-07-13T04:39:43;23.40;72.90
19256;DHT22;9762;52.490;13.410;2023-07-13T04:42:08;23.40;73.00
19256;DHT22;9762;52.490;13.410;2023-07-13T04:44:34;23.40;72.90
19256;DHT22;9762;52.490;13.410;2023-07-13T04:47:00;23.40;73.00
19256;DHT22;9762;52.490;13.410;2023-07-13T04:49:25;23.40;72.90
19256;DHT22;9762;52.490;13.410;2023-07-13T04:51:51;23.40;72.80
19256;DHT22;9762;52.490;13.410;2023-07-13T04:54:16;23.50;72.80
19256;DHT22;9762;52.490;13.410;2023-07-13T04:56:42;23.50;72.90
19256;DHT22;9762;52.490;13.410;2023-07-13T04:59:08;23.50;72.60
19256;DHT22;9762;52.490;13.410;2023-07-13T05:01:33;23.50;73.30
19256;DHT22;9762;52.490;13.410;2023-07-13T05:03:59;23.50;72.50
19256;DHT22;9762;52.490;13.410;2023-07-13T05:06:25;23.50;72.70
19256;DHT22;9762;52.490;13.410;2023-07-13T05:08:50;23.60;72.50
19256;DHT22;9762;52.490;13.410;2023-07-13T05:11:18;23.60;72.30
19256;DHT22;9762;52.490;13.410;2023-07-13T05:13:44;23.60;72.10
19256;DHT22;9762;52.490;13.410;2023-07-13T05:16:09;23.70;72.50
19256;DHT22;9762;52.490;13.410;2023-07-13T05:18:35;23.70;72.10
19256;DHT22;9762;52.490;13.410;2023-07-13T05:21:06;23.70;72.30
19256;DHT22;9762;52.490;13.410;2023-07-13T05:23:33;23.70;72.10
19256;DHT22;9762;52.490;13.410;2023-07-13T05:26:00;23.70;72.20
19256;DHT22;9762;52.490;13.410;2023-07-13T05:28:27;23.80;72.30
19256;DHT22;9762;52.490;13.410;2023-07-13T05:30:53;23.80;72.00
19256;DHT22;9762;52.490;13.410;2023-07-13T05:33:20;23.90;72.00
19256;DHT22;9762;52.490;13.410;2023-07-13T05:35:45;23.90;71.80
19256;DHT22;9762;52.490;13.410;2023-07-13T05:38:11;23.90;71.80
19256;DHT22;9762;52.490;13.410;2023-07-13T05:40:37;23.90;71.80
19256;DHT22;9762;52.490;13.410;2023-07-13T05:43:03;24.00;71.90
19256;DHT22;9762;52.490;13.410;2023-07-13T05:45:28;24.00;71.80
19256;DHT22;9762;52.490;13.410;2023-07-13T05:47:54;24.00;71.90
19256;DHT22;9762;52.490;13.410;2023-07-13T05:50:19;24.00;71.70
19256;DHT22;9762;52.490;13.410;2023-07-13T05:52:45;24.00;71.50
19256;DHT22;9762;52.490;13.410;2023-07-13T05:55:11;24.00;71.60
19256;DHT22;9762;52.490;13.410;2023-07-13T05:57:36;24.00;71.70
19256;DHT22;9762;52.490;13.410;2023-07-13T06:00:02;24.00;71.70
19256;DHT22;9762;52.490;13.410;2023-07-13T06:02:28;24.00;71.50
19256;DHT22;9762;52.490;13.410;2023-07-13T06:04:53;24.00;71.40
19256;DHT22;9762;52.490;13.410;2023-07-13T06:07:19;24.00;71.50
19256;DHT22;9762;52.490;13.410;2023-07-13T06:09:45;24.00;71.60
19256;DHT22;9762;52.490;13.410;2023-07-13T06:12:10;24.00;71.60
19256;DHT22;9762;52.490;13.410;2023-07-13T06:14:36;24.10;71.80
19256;DHT22;9762;52.490;13.410;2023-07-13T06:17:02;24.10;71.80
19256;DHT22;9762;52.490;13.410;2023-07-13T06:19:28;24.10;71.70
19256;DHT22;9762;52.490;13.410;2023-07-13T06:21:54;24.10;71.70
19256;DHT22;9762;52.490;13.410;2023-07-13T06:24:19;24.20;71.70
19256;DHT22;9762;52.490;13.410;2023-07-13T06:26:45;24.20;71.40
19256;DHT22;9762;52.490;13.410;2023-07-13T06:29:10;24.20;71.50
19256;DHT22;9762;52.490;13.410;2023-07-13T06:31:36;24.20;71.60
19256;DHT22;9762;52.490;13.410;2023-07-13T06:34:02;24.30;71.60
19256;DHT22;9762;52.490;13.410;2023-07-13T06:36:27;24.30;71.30
19256;DHT22;9762;52.490;13.410;2023-07-13T06:38:53;24.40;71.00
19256;DHT22;9762;52.490;13.410;2023-07-13T06:41:19;24.40;70.80
19256;DHT22;9762;52.490;13.410;2023-07-13T06:43:45;24.40;70.30
19256;DHT22;9762;52.490;13.410;2023-07-13T06:46:11;24.40;70.00
19256;DHT22;9762;52.490;13.410;2023-07-13T06:48:36;24.50;69.80
19256;DHT22;9762;52.490;13.410;2023-07-13T06:51:02;24.60;69.90
19256;DHT22;9762;52.490;13.410;2023-07-13T06:53:28;24.60;69.60
19256;DHT22;9762;52.490;13.410;2023-07-13T06:55:53;24.60;69.40
19256;DHT22;9762;52.490;13.410;2023-07-13T06:58:19;24.60;69.10
19256;DHT22;9762;52.490;13.410;2023-07-13T07:00:46;24.60;68.90
19256;DHT22;9762;52.490;13.410;2023-07-13T07:03:12;24.70;68.80
19256;DHT22;9762;52.490;13.410;2023-07-13T07:05:38;24.80;68.30
19256;DHT22;9762;52.490;13.410;2023-07-13T07:08:03;24.80;68.30
19256;DHT22;9762;52.490;13.410;2023-07-13T07:10:30;24.90;68.10
19256;DHT22;9762;52.490;13.410;2023-07-13T07:12:56;24.90;67.80
19256;DHT22;9762;52.490;13.410;2023-07-13T07:15:22;25.00;67.60
19256;DHT22;9762;52.490;13.410;2023-07-13T07:17:48;25.00;67.00
19256;DHT22;9762;52.490;13.410;2023-07-13T07:20:13;25.10;67.00
19256;DHT22;9762;52.490;13.410;2023-07-13T07:22:39;25.10;66.30
19256;DHT22;9762;52.490;13.410;2023-07-13T07:25:05;25.20;66.40
19256;DHT22;9762;52.490;13.410;2023-07-13T07:27:31;25.30;66.00
19256;DHT22;9762;52.490;13.410;2023-07-13T07:29:57;25.30;65.90
19256;DHT22;9762;52.490;13.410;2023-07-13T07:32:23;25.40;65.90
19256;DHT22;9762;52.490;13.410;2023-07-13T07:34:49;25.50;64.90
19256;DHT22;9762;52.490;13.410;2023-07-13T07:37:15;25.50;64.90
19256;DHT22;9762;52.490;13.410;2023-07-13T07:39:42;25.60;64.10
19256;DHT22;9762;52.490;13.410;2023-07-13T07:42:08;25.60;64.30
19256;DHT22;9762;52.490;13.410;2023-07-13T07:44:33;25.70;64.30
19256;DHT22;9762;52.490;13.410;2023-07-13T07:46:59;25.80;64.40
19256;DHT22;9762;52.490;13.410;2023-07-13T07:49:25;25.90;63.90
19256;DHT22;9762;52.490;13.410;2023-07-13T07:51:51;25.90;63.40
19256;DHT22;9762;52.490;13.410;2023-07-13T07:54:17;26.00;63.50
19256;DHT22;9762;52.490;13.410;2023-07-13T07:56:43;26.10;63.50
19256;DHT22;9762;52.490;13.410;2023-07-13T07:59:08;26.20;63.30
19256;DHT22;9762;52.490;13.410;2023-07-13T08:01:34;26.30;63.00
19256;DHT22;9762;52.490;13.410;2023-07-13T08:04:00;26.30;62.30
19256;DHT22;9762;52.490;13.410;2023-07-13T08:06:25;26.30;62.30
19256;DHT22;9762;52.490;13.410;2023-07-13T08:08:51;26.40;62.20
19256;DHT22;9762;52.490;13.410;2023-07-13T08:11:17;26.40;61.90
19256;DHT22;9762;52.490;13.410;2023-07-13T08:13:42;26.40;61.80
19256;DHT22;9762;52.490;13.410;2023-07-13T08:16:08;26.50;61.60
19256;DHT22;9762;52.490;13.410;2023-07-13T08:18:34;26.50;61.80
19256;DHT22;9762;52.490;13.410;2023-07-13T08:21:06;26.50;61.70
19256;DHT22;9762;52.490;13.410;2023-07-13T08:23:33;26.50;61.10
19256;DHT22;9762;52.490;13.410;2023-07-13T08:25:59;26.60;61.30
19256;DHT22;9762;52.490;13.410;2023-07-13T08:28:27;26.60;61.40
19256;DHT22;9762;52.490;13.410;2023-07-13T08:30:53;26.70;60.90
19256;DHT22;9762;52.490;13.410;2023-07-13T08:33:19;26.70;60.10
19256;DHT22;9762;52.490;13.410;2023-07-13T08:35:46;26.70;59.70
19256;DHT22;9762;52.490;13.410;2023-07-13T08:38:12;26.70;59.80
19256;DHT22;9762;52.490;13.410;2023-07-13T08:40:39;26.70;59.70
19256;DHT22;9762;52.490;13.410;2023-07-13T08:43:12;26.80;60.20
19256;DHT22;9762;52.490;13.410;2023-07-13T08:45:49;26.80;60.20
19256;DHT22;9762;52.490;13.410;2023-07-13T08:48:29;26.80;60.10
19256;DHT22;9762;52.490;13.410;2023-07-13T08:51:00;26.80;60.10
19256;DHT22;9762;52.490;13.410;2023-07-13T08:53:36;26.80;60.00
19256;DHT22;9762;52.490;13.410;2023-07-13T08:56:05;26.90;60.20
19256;DHT22;9762;52.490;13.410;2023-07-13T08:58:36;26.80;59.80
19256;DHT22;9762;52.490;13.410;2023-07-13T09:01:16;26.80;59.80
19256;DHT22;9762;52.490;13.410;2023-07-13T09:03:57;26.80;59.70
19256;DHT22;9762;52.490;13.410;2023-07-13T09:06:36;26.80;59.60
19256;DHT22;9762;52.490;13.410;2023-07-13T09:14:54;26.70;59.00
19256;DHT22;9762;52.490;13.410;2023-07-13T09:17:22;26.70;59.10
19256;DHT22;9762;52.490;13.410;2023-07-13T09:19:58;26.70;58.80
19256;DHT22;9762;52.490;13.410;2023-07-13T09:22:27;26.70;58.90
19256;DHT22;9762;52.490;13.410;2023-07-13T09:27:35;26.70;58.60
19256;DHT22;9762;52.490;13.410;2023-07-13T09:30:39;26.70;57.60
19256;DHT22;9762;52.490;13.410;2023-07-13T09:33:07;26.70;57.80
19256;DHT22;9762;52.490;13.410;2023-07-13T09:35:34;26.80;58.10
19256;DHT22;9762;52.490;13.410;2023-07-13T09:38:12;26.80;57.80
19256;DHT22;9762;52.490;13.410;2023-07-13T09:43:38;26.90;57.70
19256;DHT22;9762;52.490;13.410;2023-07-13T09:46:03;27.00;57.20
19256;DHT22;9762;52.490;13.410;2023-07-13T09:48:35;27.00;55.80
19256;DHT22;9762;52.490;13.410;2023-07-13T09:51:12;27.10;56.10
19256;DHT22;9762;52.490;13.410;2023-07-13T09:53:42;27.10;55.40
19256;DHT22;9762;52.490;13.410;2023-07-13T09:56:23;27.10;55.60
19256;DHT22;9762;52.490;13.410;2023-07-13T09:58:49;27.10;56.20
19256;DHT22;9762;52.490;13.410;2023-07-13T10:01:15;27.20;55.60
19256;DHT22;9762;52.490;13.410;2023-07-13T10:03:55;27.20;55.00
19256;DHT22;9762;52.490;13.410;2023-07-13T10:06:22;27.30;54.30
19256;DHT22;9762;52.490;13.410;2023-07-13T10:08:49;27.30;54.40
19256;DHT22;9762;52.490;13.410;2023-07-13T10:11:28;27.20;54.30
19256;DHT22;9762;52.490;13.410;2023-07-13T10:14:02;27.20;54.70
19256;DHT22;9762;52.490;13.410;2023-07-13T10:16:34;27.20;55.10
19256;DHT22;9762;52.490;13.410;2023-07-13T10:19:13;27.20;55.10
19256;DHT22;9762;52.490;13.410;2023-07-13T10:21:56;27.20;55.30
19256;DHT22;9762;52.490;13.410;2023-07-13T10:27:18;27.30;55.10
19256;DHT22;9762;52.490;13.410;2023-07-13T10:32:14;27.30;54.80
19256;DHT22;9762;52.490;13.410;2023-07-13T10:34:45;27.30;55.10
19256;DHT22;9762;52.490;13.410;2023-07-13T10:37:22;27.30;55.30
19256;DHT22;9762;52.490;13.410;2023-07-13T10:39:50;27.30;54.10
19256;DHT22;9762;52.490;13.410;2023-07-13T10:42:32;27.40;53.90
19256;DHT22;9762;52.490;13.410;2023-07-13T10:44:59;27.40;53.90
19256;DHT22;9762;52.490;13.410;2023-07-13T10:47:24;27.50;53.80
19256;DHT22;9762;52.490;13.410;2023-07-13T10:49:54;27.50;53.60
19256;DHT22;9762;52.490;13.410;2023-07-13T10:52:43;27.60;53.20
19256;DHT22;9762;52.490;13.410;2023-07-13T10:55:37;27.70;53.40
19256;DHT22;9762;52.490;13.410;2023-07-13T11:03:29;27.80;53.20
19256;DHT22;9762;52.490;13.410;2023-07-13T11:06:16;27.90;52.30
19256;DHT22;9762;52.490;13.410;2023-07-13T11:11:38;27.90;51.60
19256;DHT22;9762;52.490;13.410;2023-07-13T11:14:37;28.00;51.50
19256;DHT22;9762;52.490;13.410;2023-07-13T11:22:48;28.00;51.80
19256;DHT22;9762;52.490;13.410;2023-07-13T11:27:50;28.10;51.20
19256;DHT22;9762;52.490;13.410;2023-07-13T11:35:53;28.30;50.80
19256;DHT22;9762;52.490;13.410;2023-07-13T11:41:42;28.40;50.00
19256;DHT22;9762;52.490;13.410;2023-07-13T11:44:18;28.50;50.40
19256;DHT22;9762;52.490;13.410;2023-07-13T11:46:52;28.50;50.90
19256;DHT22;9762;52.490;13.410;2023-07-13T11:49:20;28.60;51.00
19256;DHT22;9762;52.490;13.410;2023-07-13T11:51:46;28.70;51.60
19256;DHT22;9762;52.490;13.410;2023-07-13T11:54:29;28.80;50.80
19256;DHT22;9762;52.490;13.410;2023-07-13T11:56:58;28.90;50.90
19256;DHT22;9762;52.490;13.410;2023-07-13T11:59:27;29.00;50.50
19256;DHT22;9762;52.490;13.410;2023-07-13T12:01:54;29.00;50.00
19256;DHT22;9762;52.490;13.410;2023-07-13T12:04:25;29.10;50.10
19256;DHT22;9762;52.490;13.410;2023-07-13T12:07:06;29.10;49.70
19256;DHT22;9762;52.490;13.410;2023-07-13T12:09:34;29.20;49.30
19256;DHT22;9762;52.490;13.410;2023-07-13T12:12:02;29.20;49.40
19256;DHT22;9762;52.490;13.410;2023-07-13T12:14:28;29.30;49.90
19256;DHT22;9762;52.490;13.410;2023-07-13T12:16:54;29.40;49.70
19256;DHT22;9762;52.490;13.410;2023-07-13T12:19:22;29.40;49.40
19256;DHT22;9762;52.490;13.410;2023-07-13T12:21:49;29.50;49.70
19256;DHT22;9762;52.490;13.410;2023-07-13T12:24:18;29.70;49.30
19256;DHT22;9762;52.490;13.410;2023-07-13T12:26:44;29.80;49.70
19256;DHT22;9762;52.490;13.410;2023-07-13T12:29:19;29.90;49.60
19256;DHT22;9762;52.490;13.410;2023-07-13T12:31:47;29.90;49.90
19256;DHT22;9762;52.490;13.410;2023-07-13T12:39:36;30.10;54.00
19256;DHT22;9762;52.490;13.410;2023-07-13T12:42:27;30.20;57.80
19256;DHT22;9762;52.490;13.410;2023-07-13T12:45:24;30.20;47.70
19256;DHT22;9762;52.490;13.410;2023-07-13T12:47:58;30.20;47.90
19256;DHT22;9762;52.490;13.410;2023-07-13T12:50:34;30.20;48.20
19256;DHT22;9762;52.490;13.410;2023-07-13T12:53:04;30.20;47.70
19256;DHT22;9762;52.490;13.410;2023-07-13T12:55:44;30.20;47.40
19256;DHT22;9762;52.490;13.410;2023-07-13T12:58:27;30.20;47.40
19256;DHT22;9762;52.490;13.410;2023-07-13T13:00:56;30.10;48.00
19256;DHT22;9762;52.490;13.410;2023-07-13T13:03:26;30.10;47.60
19256;DHT22;9762;52.490;13.410;2023-07-13T13:06:01;30.20;47.90
19256;DHT22;9762;52.490;13.410;2023-07-13T13:08:29;30.30;47.30
19256;DHT22;9762;52.490;13.410;2023-07-13T13:10:55;30.30;46.20
19256;DHT22;9762;52.490;13.410;2023-07-13T13:13:20;30.40;46.50
19256;DHT22;9762;52.490;13.410;2023-07-13T13:15:46;30.30;46.30
19256;DHT22;9762;52.490;13.410;2023-07-13T13:18:20;30.40;46.30
19256;DHT22;9762;52.490;13.410;2023-07-13T13:28:17;31.50;74.40
19256;DHT22;9762;52.490;13.410;2023-07-13T13:33:16;31.20;84.50
19256;DHT22;9762;52.490;13.410;2023-07-13T13:40:46;31.80;73.30
19256;DHT22;9762;52.490;13.410;2023-07-13T14:05:23;33.30;76.10
19256;DHT22;9762;52.490;13.410;2023-07-13T14:07:51;33.40;74.80
19256;DHT22;9762;52.490;13.410;2023-07-13T14:10:19;33.40;74.50
19256;DHT22;9762;52.490;13.410;2023-07-13T14:12:47;33.30;74.50
19256;DHT22;9762;52.490;13.410;2023-07-13T14:15:18;33.40;74.70
19256;DHT22;9762;52.490;13.410;2023-07-13T14:17:45;33.40;74.10
19256;DHT22;9762;52.490;13.410;2023-07-13T14:20:12;33.30;74.80
19256;DHT22;9762;52.490;13.410;2023-07-13T14:22:37;33.20;74.00
19256;DHT22;9762;52.490;13.410;2023-07-13T14:25:03;33.20;73.60
19256;DHT22;9762;52.490;13.410;2023-07-13T14:27:29;33.20;72.90
19256;DHT22;9762;52.490;13.410;2023-07-13T14:29:55;33.20;73.30
19256;DHT22;9762;52.490;13.410;2023-07-13T14:32:20;33.10;72.60
19256;DHT22;9762;52.490;13.410;2023-07-13T14:34:46;33.10;74.10
19256;DHT22;9762;52.490;13.410;2023-07-13T14:37:13;32.90;73.70
19256;DHT22;9762;52.490;13.410;2023-07-13T14:39:40;32.80;73.80
19256;DHT22;9762;52.490;13.410;2023-07-13T14:42:08;32.70;73.40
19256;DHT22;9762;52.490;13.410;2023-07-13T14:44:35;32.70;73.50
19256;DHT22;9762;52.490;13.410;2023-07-13T14:47:03;32.60;74.00
19256;DHT22;9762;52.490;13.410;2023-07-13T14:54:36;32.70;73.50
19256;DHT22;9762;52.490;13.410;2023-07-13T14:57:09;32.80;73.50
19256;DHT22;9762;52.490;13.410;2023-07-13T14:59:34;32.80;73.30
19256;DHT22;9762;52.490;13.410;2023-07-13T15:02:00;32.80;73.20
19256;DHT22;9762;52.490;13.410;2023-07-13T15:04:27;32.90;72.80
19256;DHT22;9762;52.490;13.410;2023-07-13T15:06:54;32.70;72.50
19256;DHT22;9762;52.490;13.410;2023-07-13T15:09:20;32.80;72.90
19256;DHT22;9762;52.490;13.410;2023-07-13T15:11:46;32.80;74.10
19256;DHT22;9762;52.490;13.410;2023-07-13T15:14:12;32.90;73.20
19256;DHT22;9762;52.490;13.410;2023-07-13T15:16:37;32.90;72.50
19256;DHT22;9762;52.490;13.410;2023-07-13T15:19:03;33.00;72.50
19256;DHT22;9762;52.490;13.410;2023-07-13T15:21:29;32.90;71.10
19256;DHT22;9762;52.490;13.410;2023-07-13T15:24:00;33.00;71.60
19256;DHT22;9762;52.490;13.410;2023-07-13T15:26:26;33.00;71.40
19256;DHT22;9762;52.490;13.410;2023-07-13T15:28:52;33.10;71.40
19256;DHT22;9762;52.490;13.410;2023-07-13T15:31:20;33.10;71.10
19256;DHT22;9762;52.490;13.410;2023-07-13T15:33:46;33.10;70.90
19256;DHT22;9762;52.490;13.410;2023-07-13T15:36:15;33.00;70.00
19256;DHT22;9762;52.490;13.410;2023-07-13T15:38:42;33.00;70.50
19256;DHT22;9762;52.490;13.410;2023-07-13T15:41:21;32.90;70.50
19256;DHT22;9762;52.490;13.410;2023-07-13T15:43:58;32.90;69.80
19256;DHT22;9762;52.490;13.410;2023-07-13T15:46:25;32.80;70.10
19256;DHT22;9762;52.490;13.410;2023-07-13T15:48:52;32.80;70.30
19256;DHT22;9762;52.490;13.410;2023-07-13T15:51:27;32.70;70.50
19256;DHT22;9762;52.490;13.410;2023-07-13T15:53:54;32.70;70.80
19256;DHT22;9762;52.490;13.410;2023-07-13T15:56:24;32.70;71.00
19256;DHT22;9762;52.490;13.410;2023-07-13T15:58:51;32.60;70.60
19256;DHT22;9762;52.490;13.410;2023-07-13T16:01:17;32.30;71.20
19256;DHT22;9762;52.490;13.410;2023-07-13T16:03:47;32.20;71.70
19256;DHT22;9762;52.490;13.410;2023-07-13T16:06:23;32.00;71.80
19256;DHT22;9762;52.490;13.410;2023-07-13T16:08:51;31.90;71.80
19256;DHT22;9762;52.490;13.410;2023-07-13T16:11:29;31.70;72.00
19256;DHT22;9762;52.490;13.410;2023-07-13T16:13:56;31.50;71.40
19256;DHT22;9762;52.490;13.410;2023-07-13T16:16:27;31.50;72.00
19256;DHT22;9762;52.490;13.410;2023-07-13T16:18:58;31.30;72.10
19256;DHT22;9762;52.490;13.410;2023-07-13T16:21:27;31.10;72.10
19256;DHT22;9762;52.490;13.410;2023-07-13T16:23:54;31.00;72.50
19256;DHT22;9762;52.490;13.410;2023-07-13T16:26:35;31.00;73.30
19256;DHT22;9762;52.490;13.410;2023-07-13T16:29:15;30.90;72.90
19256;DHT22;9762;52.490;13.410;2023-07-13T16:31:42;30.70;74.10
19256;DHT22;9762;52.490;13.410;2023-07-13T16:34:19;30.60;74.70
19256;DHT22;9762;52.490;13.410;2023-07-13T16:36:45;30.60;75.90
19256;DHT22;9762;52.490;13.410;2023-07-13T16:39:12;30.40;77.00
19256;DHT22;9762;52.490;13.410;2023-07-13T17:11:40;29.20;77.80
19256;DHT22;9762;52.490;13.410;2023-07-13T17:14:24;29.00;76.60
19256;DHT22;9762;52.490;13.410;2023-07-13T17:16:55;28.80;75.80
19256;DHT22;9762;52.490;13.410;2023-07-13T17:19:29;28.70;77.70
19256;DHT22;9762;52.490;13.410;2023-07-13T17:21:55;28.50;52.80
19256;DHT22;9762;52.490;13.410;2023-07-13T17:24:27;28.40;54.60
19256;DHT22;9762;52.490;13.410;2023-07-13T17:26:53;28.10;55.70
19256;DHT22;9762;52.490;13.410;2023-07-13T17:29:20;27.90;86.30
19256;DHT22;9762;52.490;13.410;2023-07-13T17:31:47;27.80;57.10
19256;DHT22;9762;52.490;13.410;2023-07-13T17:34:15;27.60;57.30
19256;DHT22;9762;52.490;13.410;2023-07-13T17:36:47;27.50;57.40
19256;DHT22;9762;52.490;13.410;2023-07-13T17:39:18;27.30;58.10
19256;DHT22;9762;52.490;13.410;2023-07-13T17:44:13;27.10;95.70
19256;DHT22;9762;52.490;13.410;2023-07-13T17:51:42;27.70;89.30
19256;DHT22;9762;52.490;13.410;2023-07-13T17:54:13;26.60;81.00
19256;DHT22;9762;52.490;13.410;2023-07-13T17:56:39;26.60;59.80
19256;DHT22;9762;52.490;13.410;2023-07-13T17:59:05;26.60;59.90
19256;DHT22;9762;52.490;13.410;2023-07-13T18:01:32;26.50;60.40
19256;DHT22;9762;52.490;13.410;2023-07-13T18:03:59;26.40;60.90
19256;DHT22;9762;52.490;13.410;2023-07-13T18:06:31;26.40;61.00
19256;DHT22;9762;52.490;13.410;2023-07-13T18:08:59;26.30;61.10
19256;DHT22;9762;52.490;13.410;2023-07-13T18:11:26;26.20;60.70